Time;durP1;ratioP1;P1;durP2;ratioP2;P2;SDS_P1;SDS_P2;PMS_P1;PMS_P2;Temp;Humidity;BMP_temperature;BMP_pressure;BME280_temperature;BME280_humidity;BME280_pressure;Samples;Min_cycle;Max_cycle;Signal;HPM_P1;HPM_P2
2022/01/18 00:01:29;;;;;;;34.33;8.70;;;6.10;99.90;;;;;;5023055;28;20053;-59
2022/01/18 00:03:55;;;;;;;33.42;7.82;;;6.20;99.90;;;;;;5032022;28;20021;-60
2022/01/18 00:06:21;;;;;;;22.00;5.18;;;6.20;99.90;;;;;;5029781;28;20044;-59
2022/01/18 00:08:47;;;;;;;20.35;5.22;;;6.20;99.90;;;;;;5019159;28;20694;-59
2022/01/18 00:11:13;;;;;;;26.30;5.70;;;6.20;99.90;;;;;;5033335;28;20029;-59
2022/01/18 00:13:45;;;;;;;25.65;5.90;;;6.20;99.90;;;;;;5042724;28;20043;-60
2022/01/18 00:16:26;;;;;;;30.02;5.28;;;6.20;99.90;;;;;;5041505;28;20064;-59
2022/01/18 00:18:53;;;;;;;22.70;5.05;;;6.20;99.90;;;;;;5034921;28;20064;-60
2022/01/18 00:21:35;;;;;;;31.70;4.88;;;6.20;99.90;;;;;;5029435;28;20030;-60
2022/01/18 00:24:01;;;;;;;20.73;6.25;;;6.20;99.90;;;;;;5028733;28;20029;-60
2022/01/18 00:26:30;;;;;;;26.77;5.00;;;6.20;99.90;;;;;;5033121;28;20410;-59
2022/01/18 00:29:02;;;;;;;31.92;5.38;;;6.20;99.90;;;;;;5037074;28;20478;-57
2022/01/18 00:34:03;;;;;;;44.45;6.90;;;6.20;99.90;;;;;;5037114;28;20024;-59
2022/01/18 00:36:37;;;;;;;34.92;8.68;;;6.10;99.90;;;;;;5034845;28;20183;-60
2022/01/18 00:39:05;;;;;;;35.03;7.85;;;6.10;99.90;;;;;;5034148;28;20400;-60
2022/01/18 00:41:31;;;;;;;29.98;8.82;;;6.10;99.90;;;;;;5026740;28;20491;-59
2022/01/18 00:43:56;;;;;;;41.58;9.43;;;6.10;99.90;;;;;;5032657;28;20041;-60
2022/01/18 00:46:23;;;;;;;48.75;9.98;;;6.10;99.90;;;;;;5030074;28;20465;-59
2022/01/18 00:48:52;;;;;;;45.15;11.55;;;6.10;99.90;;;;;;5016631;28;20037;-60
2022/01/18 00:51:18;;;;;;;55.70;9.52;;;6.10;99.90;;;;;;5035525;28;20490;-59
2022/01/18 00:53:45;;;;;;;42.88;10.10;;;6.10;99.90;;;;;;5035274;28;20042;-58
2022/01/18 00:58:38;;;;;;;68.93;12.35;;;6.10;99.90;;;;;;5028154;28;20155;-60
2022/01/18 01:01:05;;;;;;;55.22;11.50;;;6.10;99.90;;;;;;5029035;28;20017;-60
2022/01/18 01:03:30;;;;;;;70.75;12.05;;;6.10;99.90;;;;;;5026765;28;20025;-59
2022/01/18 01:05:56;;;;;;;68.07;13.38;;;6.10;99.90;;;;;;5033957;28;20042;-59
2022/01/18 01:08:22;;;;;;;53.25;12.95;;;6.10;99.90;;;;;;5031011;28;20498;-60
2022/01/18 01:10:47;;;;;;;49.03;11.43;;;6.10;99.90;;;;;;5033090;28;20131;-61
2022/01/18 01:13:14;;;;;;;56.20;13.68;;;6.10;99.90;;;;;;5018866;28;20046;-60
2022/01/18 01:16:09;;;;;;;54.22;12.55;;;6.00;99.90;;;;;;5035830;28;20029;-60
2022/01/18 01:19:06;;;;;;;59.95;11.60;;;6.10;99.90;;;;;;5014347;28;20029;-62
2022/01/18 01:33:03;;;;;;;53.17;10.93;;;6.10;99.90;;;;;;5032056;28;20282;-60
2022/01/18 01:43:29;;;;;;;50.85;13.05;;;6.10;99.90;;;;;;5051437;28;20332;-60
2022/01/18 01:45:57;;;;;;;53.97;12.57;;;6.10;99.90;;;;;;5046241;28;20049;-60
2022/01/18 01:48:25;;;;;;;46.85;10.75;;;6.10;99.90;;;;;;5037285;28;20029;-59
2022/01/18 01:51:01;;;;;;;51.10;11.40;;;6.10;99.90;;;;;;5031890;28;20090;-58
2022/01/18 01:53:27;;;;;;;47.22;12.77;;;6.10;99.90;;;;;;5028469;28;20407;-59
2022/01/18 01:55:53;;;;;;;48.22;12.27;;;6.10;99.90;;;;;;5031460;28;20037;-59
2022/01/18 01:58:21;;;;;;;59.88;14.20;;;6.10;99.90;;;;;;5031142;28;20028;-58
2022/01/18 02:00:50;;;;;;;57.03;15.18;;;6.00;99.90;;;;;;5035471;28;20017;-59
2022/01/18 02:03:15;;;;;;;64.25;14.85;;;6.10;99.90;;;;;;5040825;28;20115;-60
2022/01/18 02:05:41;;;;;;;59.72;14.07;;;6.10;99.90;;;;;;5031590;28;20072;-60
2022/01/18 02:08:07;;;;;;;66.95;14.40;;;6.10;99.90;;;;;;5026424;28;20041;-58
2022/01/18 02:10:37;;;;;;;50.78;14.68;;;6.10;99.90;;;;;;5031246;28;20033;-60
2022/01/18 02:13:04;;;;;;;49.60;14.35;;;6.10;99.90;;;;;;5019548;28;20049;-59
2022/01/18 02:15:30;;;;;;;53.97;15.10;;;6.10;99.90;;;;;;5021580;28;20112;-59
2022/01/18 02:23:28;;;;;;;54.33;13.20;;;6.10;99.90;;;;;;5020552;28;20091;-60
2022/01/18 02:25:53;;;;;;;56.10;16.00;;;6.10;99.90;;;;;;5026618;28;20105;-60
2022/01/18 02:28:20;;;;;;;56.70;15.02;;;6.10;99.90;;;;;;5023582;28;20108;-60
2022/01/18 02:30:46;;;;;;;51.53;15.95;;;6.00;99.90;;;;;;5024877;28;20037;-60
2022/01/18 02:33:13;;;;;;;50.95;14.88;;;6.10;99.90;;;;;;5030921;28;20026;-59
2022/01/18 02:35:38;;;;;;;48.92;13.65;;;6.10;99.90;;;;;;5021218;28;20032;-59
2022/01/18 02:38:04;;;;;;;62.33;16.23;;;6.00;99.90;;;;;;5033276;28;20026;-60
2022/01/18 02:40:31;;;;;;;60.20;15.25;;;6.10;99.90;;;;;;5042503;28;20049;-60
2022/01/18 02:43:01;;;;;;;64.32;15.85;;;6.10;99.90;;;;;;5033099;28;20682;-60
2022/01/18 02:45:27;;;;;;;54.13;17.38;;;6.00;99.90;;;;;;5031398;28;20033;-60
2022/01/18 02:47:55;;;;;;;65.13;17.00;;;6.10;99.90;;;;;;5028495;28;20029;-59
2022/01/18 02:50:21;;;;;;;47.85;16.38;;;6.00;99.90;;;;;;5031103;28;20111;-60
2022/01/18 02:52:47;;;;;;;49.92;17.55;;;6.00;99.90;;;;;;5029663;28;20434;-59
2022/01/18 02:55:13;;;;;;;61.22;17.50;;;6.10;99.90;;;;;;5030911;28;20536;-60
2022/01/18 02:57:54;;;;;;;59.60;18.67;;;6.00;99.90;;;;;;5030536;28;20091;-59
2022/01/18 03:00:30;;;;;;;53.25;17.98;;;6.00;99.90;;;;;;5037528;28;20025;-59
2022/01/18 03:03:15;;;;;;;57.22;17.73;;;6.00;99.90;;;;;;5031461;28;20030;-60
2022/01/18 03:05:43;;;;;;;65.68;17.75;;;6.10;99.90;;;;;;5031429;28;20026;-60
2022/01/18 03:08:10;;;;;;;52.50;20.35;;;6.10;99.90;;;;;;5036909;28;20039;-59
2022/01/18 03:10:37;;;;;;;58.20;19.23;;;6.10;99.90;;;;;;5031046;28;20545;-60
2022/01/18 03:13:04;;;;;;;48.72;18.38;;;6.10;99.90;;;;;;5031502;28;20026;-59
2022/01/18 03:15:30;;;;;;;57.88;17.75;;;6.10;99.90;;;;;;5038240;28;20021;-60
2022/01/18 03:17:55;;;;;;;48.38;16.70;;;6.00;99.90;;;;;;5032650;28;20067;-60
2022/01/18 03:20:22;;;;;;;56.03;18.58;;;6.00;99.90;;;;;;5026286;28;20072;-59
2022/01/18 03:22:49;;;;;;;52.22;18.33;;;6.00;99.90;;;;;;5019015;28;20452;-60
2022/01/18 03:26:16;;;;;;;47.55;17.33;;;6.10;99.90;;;;;;5035299;28;20021;-60
2022/01/18 03:28:10;;;;;;;52.85;17.50;;;6.10;99.90;;;;;;5025833;28;20073;-60
2022/01/18 03:30:39;;;;;;;48.33;17.83;;;6.10;99.90;;;;;;5029582;28;20053;-59
2022/01/18 03:33:09;;;;;;;55.00;17.95;;;6.10;99.90;;;;;;5027273;28;20499;-59
2022/01/18 03:35:34;;;;;;;47.75;17.10;;;6.10;99.90;;;;;;5025219;28;20428;-58
2022/01/18 03:38:00;;;;;;;52.40;18.23;;;6.00;99.90;;;;;;5034452;28;20035;-60
2022/01/18 03:40:26;;;;;;;47.58;17.70;;;6.10;99.90;;;;;;5030318;28;20030;-59
2022/01/18 03:42:54;;;;;;;51.00;16.40;;;6.10;99.90;;;;;;5029212;28;20521;-58
2022/01/18 03:45:39;;;;;;;46.85;15.32;;;6.00;99.90;;;;;;5028929;28;20484;-60
2022/01/18 03:48:07;;;;;;;;;;;6.00;99.90;;;;;;5029269;28;20116;-59
2022/01/18 03:50:33;;;;;;;41.83;14.50;;;6.00;99.90;;;;;;5034073;28;20382;-60
2022/01/18 03:52:58;;;;;;;44.97;16.85;;;5.90;99.90;;;;;;5029427;28;20041;-60
2022/01/18 03:55:24;;;;;;;58.05;16.45;;;5.90;99.90;;;;;;5028826;28;20025;-58
2022/01/18 03:57:50;;;;;;;58.45;18.20;;;5.80;99.90;;;;;;5029644;28;20026;-60
2022/01/18 04:00:19;;;;;;;52.50;16.67;;;5.80;99.90;;;;;;5028864;28;20040;-59
2022/01/18 04:02:45;;;;;;;63.88;17.67;;;5.80;99.90;;;;;;5021448;28;20057;-58
2022/01/18 04:05:11;;;;;;;65.57;19.50;;;5.80;99.90;;;;;;5029855;28;20039;-59
2022/01/18 04:07:37;;;;;;;57.63;18.63;;;5.80;99.90;;;;;;5027171;28;20033;-59
2022/01/18 04:10:05;;;;;;;54.85;18.73;;;5.80;99.90;;;;;;5032958;28;20478;-54
2022/01/18 04:12:30;;;;;;;54.25;17.95;;;5.80;99.90;;;;;;5026500;28;20492;-59
2022/01/18 04:14:57;;;;;;;54.28;18.67;;;5.80;99.90;;;;;;5029267;28;20022;-61
2022/01/18 04:28:49;;;;;;;66.50;20.27;;;5.90;99.90;;;;;;5025582;28;19966;-59
2022/01/18 04:30:55;;;;;;;67.47;20.10;;;5.90;99.90;;;;;;5022085;28;20305;-59
2022/01/18 04:33:21;;;;;;;92.07;23.88;;;5.90;99.90;;;;;;5029082;28;20542;-59
2022/01/18 04:35:46;;;;;;;51.80;20.65;;;5.90;99.90;;;;;;5031276;28;20033;-60
2022/01/18 04:38:12;;;;;;;63.92;20.33;;;5.90;99.90;;;;;;5027669;28;20109;-59
2022/01/18 04:40:41;;;;;;;67.60;20.67;;;5.90;99.90;;;;;;5028325;28;20026;-59
2022/01/18 04:43:23;;;;;;;82.57;21.15;;;5.90;99.90;;;;;;5020283;28;20033;-59
2022/01/18 04:48:35;;;;;;;68.45;18.90;;;5.90;99.90;;;;;;5025385;28;20036;-60
2022/01/18 04:51:09;;;;;;;68.43;20.85;;;5.90;99.90;;;;;;5025233;28;20499;-58
2022/01/18 04:53:41;;;;;;;61.65;18.98;;;5.90;99.90;;;;;;5023469;28;20105;-61
2022/01/18 04:56:14;;;;;;;59.97;19.83;;;5.90;99.90;;;;;;5025753;28;20065;-58
2022/01/18 04:58:39;;;;;;;63.92;19.48;;;5.90;99.90;;;;;;5038902;28;20056;-61
2022/01/18 05:01:07;;;;;;;63.50;19.80;;;5.90;99.90;;;;;;5027731;28;20045;-60
2022/01/18 05:03:33;;;;;;;58.72;18.83;;;5.90;99.90;;;;;;5025602;28;20022;-59
2022/01/18 05:06:00;;;;;;;64.28;20.00;;;5.90;99.90;;;;;;5022498;28;20026;-58
2022/01/18 05:08:26;;;;;;;72.53;21.08;;;5.90;99.90;;;;;;5026795;28;20038;-58
2022/01/18 05:10:57;;;;;;;61.58;21.48;;;5.90;99.90;;;;;;5025012;28;20108;-61
2022/01/18 05:21:24;;;;;;;62.25;20.65;;;5.90;99.90;;;;;;5028988;28;20100;-60
2022/01/18 05:23:50;;;;;;;65.45;21.40;;;6.00;99.90;;;;;;5027633;28;20082;-60
2022/01/18 05:26:15;;;;;;;70.40;20.65;;;6.00;99.90;;;;;;5035410;28;20021;-60
2022/01/18 05:28:41;;;;;;;62.88;19.30;;;5.90;99.90;;;;;;5019647;28;20072;-59
2022/01/18 05:31:06;;;;;;;62.10;19.23;;;6.00;99.90;;;;;;5027428;28;20029;-61
2022/01/18 05:33:32;;;;;;;49.15;18.17;;;5.90;99.90;;;;;;5024157;28;20035;-61
2022/01/18 05:35:58;;;;;;;63.33;18.90;;;5.90;99.90;;;;;;5031799;28;20091;-60
2022/01/18 05:38:23;;;;;;;61.75;19.95;;;5.90;99.90;;;;;;5029620;28;20026;-60
2022/01/18 05:40:49;;;;;;;57.40;19.38;;;5.90;99.90;;;;;;5028394;28;20100;-60
2022/01/18 05:43:16;;;;;;;41.50;18.50;;;5.90;99.90;;;;;;5026661;28;20113;-61
2022/01/18 05:45:41;;;;;;;61.75;20.95;;;5.90;99.90;;;;;;5028933;28;20087;-60
2022/01/18 05:48:07;;;;;;;67.28;17.88;;;5.90;99.90;;;;;;5030293;28;20430;-60
2022/01/18 05:50:32;;;;;;;55.15;18.13;;;5.90;99.90;;;;;;5027437;28;20064;-60
2022/01/18 05:52:58;;;;;;;52.80;16.15;;;5.80;99.90;;;;;;5029174;28;20116;-60
2022/01/18 05:55:23;;;;;;;49.53;15.63;;;5.80;99.90;;;;;;5030270;28;20112;-60
2022/01/18 05:57:49;;;;;;;48.33;15.80;;;5.90;99.90;;;;;;5029617;28;20025;-60
2022/01/18 06:00:23;;;;;;;38.42;14.15;;;5.90;99.90;;;;;;5033216;28;20014;-60
2022/01/18 06:03:01;;;;;;;46.13;13.85;;;5.90;99.90;;;;;;5034586;28;20117;-60
2022/01/18 06:08:11;;;;;;;56.28;16.00;;;5.90;99.90;;;;;;5035369;28;20132;-60
2022/01/18 06:10:37;;;;;;;49.58;14.13;;;5.80;99.90;;;;;;5033365;28;20033;-60
2022/01/18 06:13:04;;;;;;;44.97;13.50;;;5.80;99.90;;;;;;5028763;28;20044;-60
2022/01/18 06:15:31;;;;;;;51.35;14.02;;;5.80;99.90;;;;;;5030167;28;20182;-60
2022/01/18 06:17:57;;;;;;;61.75;13.90;;;5.80;99.90;;;;;;5027016;28;20100;-60
2022/01/18 06:20:23;;;;;;;40.42;12.95;;;5.80;99.90;;;;;;5030502;28;20104;-60
2022/01/18 06:22:52;;;;;;;45.90;15.15;;;5.80;99.90;;;;;;5032317;28;20159;-61
2022/01/18 06:25:19;;;;;;;37.85;12.27;;;5.80;99.90;;;;;;5038186;28;20053;-60
2022/01/18 06:27:45;;;;;;;40.33;12.43;;;5.90;99.90;;;;;;5021392;28;20049;-60
2022/01/18 06:30:11;;;;;;;39.00;13.65;;;5.80;99.90;;;;;;5030359;28;20384;-60
2022/01/18 06:32:38;;;;;;;44.03;15.75;;;5.80;99.90;;;;;;5036689;28;20022;-60
2022/01/18 06:35:05;;;;;;;44.53;13.35;;;5.80;99.90;;;;;;5027631;28;20072;-61
2022/01/18 06:37:30;;;;;;;43.28;12.30;;;5.80;99.90;;;;;;5030177;28;20029;-59
2022/01/18 06:39:58;;;;;;;37.78;11.68;;;5.80;99.90;;;;;;5034225;28;20029;-60
2022/01/18 06:42:24;;;;;;;45.65;12.73;;;5.80;99.90;;;;;;5030819;28;20021;-60
2022/01/18 06:44:51;;;;;;;39.40;13.35;;;5.80;99.90;;;;;;5024291;28;20051;-59
2022/01/18 06:47:16;;;;;;;48.00;12.88;;;5.80;99.90;;;;;;5032403;28;20438;-59
2022/01/18 06:49:42;;;;;;;49.33;18.08;;;5.80;99.90;;;;;;5032188;28;20025;-59
2022/01/18 06:52:08;;;;;;;55.05;16.95;;;5.80;99.90;;;;;;5027600;28;20091;-60
2022/01/18 06:54:34;;;;;;;51.78;17.70;;;5.90;99.90;;;;;;5031556;28;20037;-60
2022/01/18 06:56:59;;;;;;;49.00;17.10;;;5.90;99.90;;;;;;5033914;28;20024;-61
2022/01/18 06:59:25;;;;;;;51.45;16.77;;;5.90;99.90;;;;;;5033623;28;20048;-61
2022/01/18 07:01:51;;;;;;;56.63;19.88;;;5.90;99.90;;;;;;5030334;28;20025;-60
2022/01/18 07:04:16;;;;;;;45.65;16.02;;;5.90;99.90;;;;;;5028960;28;20045;-60
2022/01/18 07:06:42;;;;;;;56.47;18.17;;;5.90;99.90;;;;;;5027843;28;20022;-60
2022/01/18 07:09:08;;;;;;;50.00;18.65;;;5.80;99.90;;;;;;5029837;28;20049;-60
2022/01/18 07:11:34;;;;;;;54.95;19.27;;;5.80;99.90;;;;;;5029140;28;20390;-59
2022/01/18 07:13:59;;;;;;;56.13;20.73;;;5.80;99.90;;;;;;5035869;28;20493;-61
2022/01/18 07:16:25;;;;;;;52.05;20.60;;;5.80;99.90;;;;;;5028075;28;20060;-60
2022/01/18 07:18:50;;;;;;;64.03;20.45;;;5.90;99.90;;;;;;5032316;28;20026;-59
2022/01/18 07:21:17;;;;;;;51.42;19.08;;;5.80;99.90;;;;;;5035335;28;20515;-59
2022/01/18 07:23:43;;;;;;;58.33;19.73;;;5.80;99.90;;;;;;5033033;28;20026;-61
2022/01/18 07:26:08;;;;;;;58.53;19.60;;;5.80;99.90;;;;;;5025898;28;20545;-60
2022/01/18 07:28:34;;;;;;;55.22;19.13;;;5.90;99.90;;;;;;5021557;28;20058;-59
2022/01/18 07:31:00;;;;;;;55.17;18.48;;;5.80;99.90;;;;;;5029624;28;20064;-59
2022/01/18 07:33:25;;;;;;;47.33;16.30;;;5.80;99.90;;;;;;5020458;28;20053;-59
2022/01/18 07:35:51;;;;;;;60.17;19.35;;;5.90;99.90;;;;;;5029721;28;20033;-59
2022/01/18 07:38:18;;;;;;;44.53;18.00;;;5.90;99.90;;;;;;5028897;28;20018;-60
2022/01/18 07:40:48;;;;;;;49.88;18.83;;;5.90;99.90;;;;;;5037386;28;20445;-59
2022/01/18 07:43:19;;;;;;;54.65;20.75;;;5.90;99.90;;;;;;5029453;28;20517;-61
2022/01/18 07:45:45;;;;;;;57.75;19.60;;;5.90;99.90;;;;;;5029090;28;20030;-60
2022/01/18 07:48:11;;;;;;;52.92;17.23;;;5.90;99.90;;;;;;5031702;28;20057;-60
2022/01/18 07:50:39;;;;;;;71.60;20.50;;;5.90;99.90;;;;;;5030681;28;20029;-60
2022/01/18 07:53:05;;;;;;;65.40;25.23;;;5.90;99.90;;;;;;5041255;28;20033;-60
2022/01/18 07:55:30;;;;;;;55.65;22.40;;;5.90;99.90;;;;;;5026637;28;20065;-60
2022/01/18 07:57:58;;;;;;;55.60;20.58;;;5.90;99.90;;;;;;5022869;28;20034;-61
2022/01/18 08:00:24;;;;;;;52.25;17.33;;;6.00;99.90;;;;;;5029933;28;20071;-60
2022/01/18 08:02:50;;;;;;;41.05;15.85;;;5.90;99.90;;;;;;5026020;28;20036;-60
2022/01/18 08:05:16;;;;;;;51.42;18.83;;;6.00;99.90;;;;;;5028936;28;20022;-60
2022/01/18 08:07:42;;;;;;;46.20;19.20;;;6.00;99.90;;;;;;5022514;28;20033;-60
2022/01/18 08:10:09;;;;;;;55.70;20.75;;;6.00;99.90;;;;;;5026292;28;20034;-60
2022/01/18 08:12:35;;;;;;;77.65;31.15;;;6.00;99.90;;;;;;5023810;28;20044;-60
2022/01/18 08:15:02;;;;;;;69.55;26.77;;;6.00;99.90;;;;;;5021674;28;20523;-59
2022/01/18 08:17:28;;;;;;;61.72;24.90;;;6.00;99.90;;;;;;5026598;28;20037;-62
2022/01/18 08:19:53;;;;;;;57.85;23.38;;;6.10;99.90;;;;;;5028985;28;20033;-60
2022/01/18 08:22:19;;;;;;;66.65;22.13;;;6.10;99.90;;;;;;5027343;28;20033;-60
2022/01/18 08:24:45;;;;;;;76.72;26.83;;;6.10;99.90;;;;;;5028962;28;20049;-60
2022/01/18 08:27:11;;;;;;;77.63;25.05;;;6.10;99.90;;;;;;5029820;28;20037;-60
2022/01/18 08:29:37;;;;;;;67.72;25.65;;;6.10;99.90;;;;;;5022952;28;20051;-59
2022/01/18 08:32:06;;;;;;;64.63;24.48;;;6.10;99.90;;;;;;5028695;28;20025;-59
2022/01/18 08:34:33;;;;;;;60.92;23.55;;;6.20;99.90;;;;;;5028580;28;20037;-58
2022/01/18 08:36:59;;;;;;;64.00;26.25;;;6.20;99.90;;;;;;5028293;28;20503;-58
2022/01/18 08:39:25;;;;;;;62.53;26.13;;;6.20;99.90;;;;;;5029068;28;20076;-60
2022/01/18 08:41:50;;;;;;;41.92;18.95;;;6.30;99.90;;;;;;5028334;28;20029;-59
2022/01/18 08:44:16;;;;;;;60.95;20.42;;;6.30;99.90;;;;;;5028395;28;20056;-60
2022/01/18 08:46:42;;;;;;;55.95;20.63;;;6.40;99.90;;;;;;5025485;28;20461;-60
2022/01/18 08:49:08;;;;;;;48.72;18.65;;;6.40;99.90;;;;;;5026248;28;20148;-61
2022/01/18 08:51:34;;;;;;;46.50;16.63;;;6.50;99.90;;;;;;5029797;28;20120;-60
2022/01/18 08:54:01;;;;;;;51.05;17.27;;;6.50;99.90;;;;;;5032813;28;20087;-60
2022/01/18 08:56:27;;;;;;;42.53;17.35;;;6.50;99.90;;;;;;5028035;28;20037;-59
2022/01/18 08:58:53;;;;;;;56.25;16.45;;;6.50;99.90;;;;;;5022700;28;20036;-60
2022/01/18 09:01:18;;;;;;;45.75;16.80;;;6.60;99.90;;;;;;5025438;28;20168;-59
2022/01/18 09:03:45;;;;;;;51.92;18.98;;;6.60;99.90;;;;;;5035267;28;20109;-60
2022/01/18 09:06:16;;;;;;;53.72;18.42;;;6.60;99.90;;;;;;5029850;28;20028;-60
2022/01/18 09:08:41;;;;;;;61.22;19.08;;;6.60;99.90;;;;;;5033879;28;20380;-60
2022/01/18 09:11:10;;;;;;;47.55;19.10;;;6.60;99.90;;;;;;5029912;28;20037;-60
2022/01/18 09:13:37;;;;;;;57.10;18.33;;;6.60;99.90;;;;;;5031695;28;20372;-60
2022/01/18 09:16:05;;;;;;;48.17;18.67;;;6.70;99.90;;;;;;5029154;28;20084;-60
2022/01/18 09:18:34;;;;;;;62.60;20.67;;;6.70;99.90;;;;;;5034516;28;20075;-60
2022/01/18 09:21:00;;;;;;;45.40;18.25;;;6.70;99.90;;;;;;5029030;28;20112;-60
2022/01/18 09:23:26;;;;;;;50.70;19.42;;;6.60;99.90;;;;;;5029160;28;20785;-60
2022/01/18 09:25:52;;;;;;;54.10;18.25;;;6.70;99.90;;;;;;5026805;28;20083;-60
2022/01/18 09:28:18;;;;;;;65.97;19.25;;;6.70;99.90;;;;;;5021150;28;20029;-60
2022/01/18 09:30:43;;;;;;;51.92;20.35;;;6.70;99.90;;;;;;5032029;28;20064;-59
2022/01/18 09:33:09;;;;;;;55.88;20.38;;;6.70;99.90;;;;;;5032161;28;20457;-60
2022/01/18 09:35:36;;;;;;;56.08;19.25;;;6.80;99.90;;;;;;5032692;28;20041;-59
2022/01/18 09:38:03;;;;;;;50.47;20.45;;;6.80;99.90;;;;;;5031348;28;20042;-60
2022/01/18 09:40:30;;;;;;;49.95;21.85;;;6.90;99.90;;;;;;5029980;28;20133;-60
2022/01/18 09:42:59;;;;;;;52.85;19.45;;;6.90;99.90;;;;;;5025681;28;20022;-59
2022/01/18 09:45:27;;;;;;;53.10;19.95;;;7.00;99.90;;;;;;5030186;28;20034;-61
2022/01/18 09:47:54;;;;;;;51.63;18.83;;;7.00;99.90;;;;;;5035366;28;20590;-60
2022/01/18 09:50:29;;;;;;;54.15;19.10;;;7.00;99.90;;;;;;5034895;28;20025;-60
2022/01/18 09:52:56;;;;;;;45.15;19.15;;;7.00;99.90;;;;;;5030166;28;20028;-60
2022/01/18 09:55:23;;;;;;;48.40;18.20;;;7.10;99.90;;;;;;5030538;28;20029;-60
2022/01/18 09:57:50;;;;;;;51.58;19.02;;;7.10;99.90;;;;;;5032597;28;20033;-61
2022/01/18 10:00:17;;;;;;;51.03;18.65;;;7.10;99.90;;;;;;5032009;28;20151;-61
2022/01/18 10:02:43;;;;;;;52.10;19.45;;;7.20;99.90;;;;;;5026597;28;20032;-60
2022/01/18 10:05:48;;;;;;;44.60;18.92;;;7.20;99.90;;;;;;5034132;28;20021;-59
2022/01/18 10:08:16;;;;;;;66.82;22.38;;;7.30;99.90;;;;;;5002099;28;20026;-61
2022/01/18 10:10:47;;;;;;;46.47;21.48;;;7.30;99.90;;;;;;5022610;28;20038;-61
2022/01/18 10:13:22;;;;;;;86.55;24.05;;;7.40;99.90;;;;;;5034384;28;20033;-61
2022/01/18 10:16:20;;;;;;;42.65;18.73;;;7.40;99.90;;;;;;5024981;28;20041;-60
2022/01/18 10:18:52;;;;;;;53.53;20.85;;;7.40;99.90;;;;;;5019609;28;20044;-61
2022/01/18 10:21:39;;;;;;;57.10;20.55;;;7.30;99.90;;;;;;5029230;28;21921;-60
2022/01/18 10:24:20;;;;;;;46.75;19.52;;;7.30;99.90;;;;;;5024937;28;20398;-58
2022/01/18 10:26:49;;;;;;;51.58;20.42;;;7.40;99.90;;;;;;5028575;28;20033;-61
2022/01/18 10:29:16;;;;;;;42.55;17.58;;;7.50;99.90;;;;;;5013560;28;20049;-60
2022/01/18 10:37:03;;;;;;;41.83;17.70;;;7.50;99.90;;;;;;5024005;28;20034;-60
2022/01/18 10:39:33;;;;;;;45.65;18.42;;;7.50;99.90;;;;;;5027579;28;20529;-61
2022/01/18 10:41:59;;;;;;;43.17;17.40;;;7.60;99.90;;;;;;5027408;28;20493;-61
2022/01/18 10:44:25;;;;;;;47.65;18.65;;;7.60;99.90;;;;;;5030110;28;20108;-59
2022/01/18 10:46:56;;;;;;;41.90;16.70;;;7.80;99.90;;;;;;5038624;28;20829;-61
2022/01/18 10:49:45;;;;;;;42.70;16.88;;;7.80;99.90;;;;;;5029265;28;20518;-61
2022/01/18 10:52:18;;;;;;;47.40;19.48;;;7.90;99.90;;;;;;5034329;28;20087;-61
2022/01/18 10:55:00;;;;;;;40.97;17.80;;;7.80;99.90;;;;;;5029954;28;20109;-60
2022/01/18 10:57:32;;;;;;;42.20;18.88;;;8.00;99.90;;;;;;5030778;28;20390;-61
2022/01/18 11:00:09;;;;;;;45.22;18.02;;;8.20;99.90;;;;;;5028496;28;20040;-60
2022/01/18 11:02:36;;;;;;;42.10;18.55;;;8.00;99.90;;;;;;5028179;28;20034;-60
2022/01/18 11:05:12;;;;;;;40.40;17.85;;;8.00;99.90;;;;;;5027768;28;20031;-61
2022/01/18 11:07:39;;;;;;;51.88;19.75;;;8.10;99.90;;;;;;5026835;28;20036;-60
2022/01/18 11:10:06;;;;;;;43.83;17.85;;;8.10;99.90;;;;;;5029471;28;20108;-60
2022/01/18 11:12:49;;;;;;;41.17;17.48;;;8.20;99.90;;;;;;5031017;28;20403;-61
2022/01/18 11:15:19;;;;;;;41.80;17.58;;;8.30;99.90;;;;;;5027885;28;20025;-58
2022/01/18 11:17:50;;;;;;;39.50;17.85;;;8.30;99.90;;;;;;5030759;28;20091;-61
2022/01/18 11:20:18;;;;;;;43.35;17.10;;;8.20;99.90;;;;;;5030954;28;20343;-61
2022/01/18 11:22:47;;;;;;;42.35;16.58;;;8.30;99.90;;;;;;5026954;28;20031;-61
2022/01/18 11:25:13;;;;;;;46.85;16.70;;;8.40;99.90;;;;;;5027454;28;20414;-61
2022/01/18 11:27:42;;;;;;;41.42;17.27;;;8.30;99.90;;;;;;5030027;28;20045;-61
2022/01/18 11:30:09;;;;;;;46.83;19.13;;;8.20;99.90;;;;;;5013895;28;20128;-60
2022/01/18 11:32:35;;;;;;;41.53;17.23;;;8.20;99.90;;;;;;5028920;28;20040;-61
2022/01/18 11:35:08;;;;;;;43.78;18.08;;;8.20;99.90;;;;;;5029616;28;20759;-60
2022/01/18 11:37:59;;;;;;;47.83;18.95;;;8.20;99.90;;;;;;5028934;28;20550;-60
2022/01/18 11:40:25;;;;;;;40.17;17.25;;;8.20;99.90;;;;;;5010995;28;20088;-60
2022/01/18 11:42:54;;;;;;;41.75;17.45;;;8.30;99.90;;;;;;5026800;28;20549;-59
2022/01/18 11:45:26;;;;;;;46.53;18.42;;;8.30;99.90;;;;;;5036256;28;20108;-61
2022/01/18 11:48:03;;;;;;;41.67;18.08;;;8.20;99.90;;;;;;5025505;28;20087;-61
2022/01/18 11:50:32;;;;;;;47.35;20.27;;;8.20;99.90;;;;;;5030166;28;20040;-61
2022/01/18 11:53:28;;;;;;;42.28;16.17;;;8.30;99.90;;;;;;5032596;28;20037;-61
2022/01/18 11:55:59;;;;;;;33.67;15.23;;;8.40;99.90;;;;;;5030372;28;20713;-60
2022/01/18 11:58:26;;;;;;;38.00;16.10;;;8.40;99.90;;;;;;5025345;28;20033;-60
2022/01/18 12:00:57;;;;;;;45.45;18.65;;;8.50;99.90;;;;;;5024753;28;20479;-61
2022/01/18 12:03:27;;;;;;;39.25;16.70;;;8.50;99.90;;;;;;5030266;28;20483;-60
2022/01/18 12:05:53;;;;;;;51.35;17.90;;;8.50;99.90;;;;;;5030187;28;20096;-60
2022/01/18 12:08:40;;;;;;;37.72;16.58;;;8.70;99.90;;;;;;5028832;28;20041;-60
2022/01/18 12:11:11;;;;;;;35.92;16.00;;;8.70;99.90;;;;;;5031736;28;20040;-61
2022/01/18 12:13:43;;;;;;;33.40;16.58;;;8.80;99.90;;;;;;5034673;28;20044;-61
2022/01/18 12:16:18;;;;;;;38.55;15.52;;;8.80;99.90;;;;;;5028895;28;20478;-60
2022/01/18 12:18:54;;;;;;;36.42;17.08;;;8.70;99.90;;;;;;5028958;28;20034;-60
2022/01/18 12:21:24;;;;;;;42.28;15.40;;;8.80;99.90;;;;;;5040409;28;20044;-61
2022/01/18 12:23:50;;;;;;;46.42;17.98;;;8.80;99.90;;;;;;5024787;28;20053;-59
2022/01/18 12:29:35;;;;;;;38.08;15.30;;;8.90;99.90;;;;;;5012194;28;20764;-60
2022/01/18 12:32:17;;;;;;;37.43;14.80;;;8.90;99.90;;;;;;5024607;28;20035;-61
2022/01/18 12:34:47;;;;;;;38.78;14.90;;;8.80;99.90;;;;;;5028252;28;20033;-59
2022/01/18 12:37:20;;;;;;;40.75;16.02;;;8.90;99.90;;;;;;5025204;28;20099;-60
2022/01/18 12:39:53;;;;;;;35.28;13.50;;;8.90;99.90;;;;;;5027594;28;20043;-60
2022/01/18 12:45:00;;;;;;;37.72;15.90;;;8.80;99.90;;;;;;5041797;28;20124;-61
2022/01/18 12:47:27;;;;;;;34.88;15.02;;;8.80;99.90;;;;;;5039582;28;20103;-61
2022/01/18 12:49:53;;;;;;;34.38;17.23;;;8.80;99.90;;;;;;5028182;28;20030;-61
2022/01/18 12:52:18;;;;;;;32.10;15.45;;;8.70;99.90;;;;;;5028878;28;20032;-61
2022/01/18 12:54:47;;;;;;;38.17;15.68;;;8.80;99.90;;;;;;5029672;28;20399;-61
2022/01/18 12:57:23;;;;;;;43.92;17.45;;;8.80;99.90;;;;;;5033834;28;20370;-60
2022/01/18 13:00:09;;;;;;;38.72;15.68;;;8.90;99.90;;;;;;5036160;28;20025;-61
2022/01/18 13:02:35;;;;;;;40.47;15.75;;;9.00;99.90;;;;;;5028478;28;20112;-61
2022/01/18 13:05:03;;;;;;;30.75;13.52;;;9.10;99.90;;;;;;5030527;28;20038;-59
2022/01/18 13:07:29;;;;;;;42.20;17.42;;;9.10;99.90;;;;;;5026913;28;20135;-61
2022/01/18 13:09:56;;;;;;;42.05;16.13;;;9.20;99.90;;;;;;5032964;28;21395;-60
2022/01/18 13:12:33;;;;;;;33.53;13.75;;;9.20;99.90;;;;;;5031331;28;20499;-60
2022/01/18 13:15:00;;;;;;;31.85;13.38;;;9.10;99.90;;;;;;5027983;28;20037;-59
2022/01/18 13:23:38;;;;;;;28.95;13.88;;;8.90;99.90;;;;;;5032023;28;20044;-61
2022/01/18 13:26:03;;;;;;;29.98;12.65;;;9.00;99.90;;;;;;5033322;28;20463;-60
2022/01/18 13:28:37;;;;;;;34.08;13.32;;;9.00;99.90;;;;;;5031235;28;20037;-60
2022/01/18 13:31:22;;;;;;;31.10;13.77;;;8.90;99.90;;;;;;5016108;28;20462;-60
2022/01/18 13:33:57;;;;;;;33.10;14.00;;;8.90;99.90;;;;;;5029406;28;20038;-60
2022/01/18 13:36:24;;;;;;;28.48;12.73;;;8.90;99.90;;;;;;5032405;28;20561;-61
2022/01/18 13:38:50;;;;;;;38.38;16.02;;;8.90;99.90;;;;;;5031682;28;20532;-61
2022/01/18 13:41:17;;;;;;;42.25;17.65;;;8.90;99.90;;;;;;5034193;28;20108;-60
2022/01/18 13:43:44;;;;;;;47.47;17.73;;;8.90;99.90;;;;;;5031821;28;20060;-60
2022/01/18 13:46:22;;;;;;;46.38;17.58;;;8.80;99.90;;;;;;5030691;28;20404;-60
2022/01/18 13:48:48;;;;;;;38.58;16.98;;;8.80;99.90;;;;;;5026480;28;20021;-60
2022/01/18 13:51:19;;;;;;;44.97;16.40;;;8.80;99.90;;;;;;5032534;28;20537;-60
2022/01/18 13:53:45;;;;;;;39.88;15.52;;;8.80;99.90;;;;;;5022907;28;20056;-61
2022/01/18 13:56:17;;;;;;;42.67;16.58;;;8.70;99.90;;;;;;5030650;28;20480;-58
2022/01/18 13:58:45;;;;;;;39.40;16.08;;;8.70;99.90;;;;;;5031520;28;20025;-60